MI86 weather

Midget Airport
North Muskegon, Michigan, United States

Public forecast

Using degrees Fahrenheit for public forecast. Weather courtesy of forecast.io.

METAR (pilot weather report)

Closest report is Fremont Municipal Airport, 10.2 nm (18.9 km) NE. Retrieved 2019/07/18 03:35 UTC (12 minutes ago):

KFFX 180335Z AUTO 13003KT 10SM CLR 23/21 A2991 RMK AO2 T02340212

TAF (pilot weather forecast)

Forecast is more than 12 hours old.

Closest forecast is Muskegon County Airport, 10.6 nm (19.7 km) SSW. Retrieved 2019/07/17 00:24 UTC (1 day ago):

TAF KMKG 172321Z 1800/1824 28007KT P6SM SCT030 BKN250 FM180400 14006KT P6SM SCT250 FM181100 17009KT P6SM OVC150 FM181500 19014G24KT 5SM -TSRA BR OVC060CB FM181600 19013KT P6SM VCTS BKN090CB FM181800 25020G35KT 2SM TSRA BR OVC025CB FM182000 20012KT P6SM SCT180